Airport View

Enter AWOS ICAO identifier for current METAR.

ex. KFNL

KCLS 210110Z AUTO 00000KT 10SM FEW055 20/14 A3012 RMK AO2

21 Sep 2019 01:11

Frequency: 118.025

Phone: 360-740-5164

Other Area AWOS: KOLM - KGRF - KKLS - KSHN

TAF KOLM 202335Z 2100/2124 VRB03KT P6SM BKN050 FM210400 00000KT P6SM SCT050 FM211100 00000KT 1SM BR OVC002 FM211600 00000KT 4SM BR OVC004 FM211800 VRB03KT P6SM BKN008 FM211900 VRB03KT P6SM BKN200